Time;durP1;ratioP1;P1;durP2;ratioP2;P2;SDS_P1;SDS_P2;PMS_P1;PMS_P2;Temp;Humidity;BMP_temperature;BMP_pressure;BME280_temperature;BME280_humidity;BME280_pressure;Samples;Min_cycle;Max_cycle;Signal;HPM_P1;HPM_P2
2021/01/21 00:00:33;;;;;;;2.47;1.30;;;10.90;99.90;;;;;;5074129;28;20427;-67
2021/01/21 00:02:59;;;;;;;2.63;1.10;;;10.90;99.90;;;;;;5071059;28;20472;-67
2021/01/21 00:05:25;;;;;;;4.70;1.50;;;10.90;99.90;;;;;;5071056;28;20395;-67
2021/01/21 00:07:52;;;;;;;3.75;1.30;;;11.00;99.90;;;;;;5069387;28;20040;-67
2021/01/21 00:10:18;;;;;;;2.78;1.38;;;11.00;99.90;;;;;;5067365;28;20075;-67
2021/01/21 00:12:45;;;;;;;3.42;1.50;;;11.00;99.90;;;;;;5069465;28;20044;-68
2021/01/21 00:15:12;;;;;;;2.80;1.20;;;11.00;99.90;;;;;;5080813;28;20135;-67
2021/01/21 00:17:38;;;;;;;3.47;1.25;;;11.10;99.90;;;;;;5070674;28;20053;-67
2021/01/21 00:20:06;;;;;;;2.90;1.10;;;11.10;99.90;;;;;;5070345;28;20052;-67
2021/01/21 00:22:32;;;;;;;3.05;1.20;;;11.00;99.90;;;;;;5069587;28;20557;-67
2021/01/21 00:24:59;;;;;;;3.47;1.40;;;11.00;99.90;;;;;;5069632;28;20056;-67
2021/01/21 00:27:26;;;;;;;3.00;1.45;;;11.00;99.90;;;;;;5069693;28;20060;-67
2021/01/21 00:29:53;;;;;;;3.75;1.50;;;11.00;99.90;;;;;;5073104;28;20140;-67
2021/01/21 00:32:19;;;;;;;2.30;1.05;;;11.00;99.90;;;;;;5108087;28;20052;-66
2021/01/21 00:34:46;;;;;;;2.08;1.13;;;11.10;99.90;;;;;;5075907;28;20052;-67
2021/01/21 00:37:13;;;;;;;2.88;1.30;;;11.10;99.90;;;;;;5069651;28;20049;-67
2021/01/21 00:39:39;;;;;;;1.80;1.00;;;11.10;99.90;;;;;;5067855;28;20153;-67
2021/01/21 00:42:06;;;;;;;3.00;1.45;;;11.10;99.90;;;;;;5070764;28;20102;-67
2021/01/21 00:44:32;;;;;;;1.92;1.15;;;11.20;99.90;;;;;;5068960;28;20048;-67
2021/01/21 00:46:59;;;;;;;3.35;1.30;;;11.20;99.90;;;;;;5069208;28;20063;-67
2021/01/21 00:49:26;;;;;;;4.88;1.30;;;11.20;99.90;;;;;;5067594;28;20126;-67
2021/01/21 00:51:52;;;;;;;3.95;1.27;;;11.20;99.90;;;;;;5069013;28;20053;-67
2021/01/21 00:54:19;;;;;;;3.13;1.17;;;11.20;99.90;;;;;;5077385;28;20458;-67
2021/01/21 00:56:46;;;;;;;4.43;1.40;;;11.20;99.90;;;;;;5072788;28;20045;-67
2021/01/21 00:59:12;;;;;;;3.13;1.17;;;11.20;99.90;;;;;;5076676;28;20092;-67
2021/01/21 01:01:39;;;;;;;1.67;0.90;;;11.20;99.90;;;;;;5078479;28;20063;-67
2021/01/21 01:04:05;;;;;;;3.03;1.20;;;11.20;99.90;;;;;;5072423;28;20897;-67
2021/01/21 01:06:32;;;;;;;2.05;1.25;;;11.20;99.90;;;;;;5075206;28;20087;-67
2021/01/21 01:08:59;;;;;;;4.40;1.38;;;11.20;99.90;;;;;;5075339;28;20064;-67
2021/01/21 01:11:25;;;;;;;2.05;0.90;;;11.20;99.90;;;;;;5074476;28;20055;-67
2021/01/21 01:13:52;;;;;;;2.38;0.90;;;11.20;99.90;;;;;;5076555;28;20048;-67
2021/01/21 01:16:18;;;;;;;3.60;1.23;;;11.20;99.90;;;;;;5073217;28;20079;-67
2021/01/21 01:18:44;;;;;;;2.35;1.48;;;11.20;99.90;;;;;;5075940;28;20044;-67
2021/01/21 01:21:12;;;;;;;2.50;1.10;;;11.20;99.90;;;;;;5073466;28;20052;-67
2021/01/21 01:23:39;;;;;;;3.20;1.20;;;11.20;99.90;;;;;;5072464;28;20148;-67
2021/01/21 01:26:05;;;;;;;2.50;1.15;;;11.10;99.90;;;;;;5073718;28;20415;-67
2021/01/21 01:28:31;;;;;;;3.35;1.15;;;11.10;99.90;;;;;;5070644;28;20048;-67
2021/01/21 01:30:58;;;;;;;2.65;1.15;;;11.10;99.90;;;;;;5114538;27;20105;-67
2021/01/21 01:33:25;;;;;;;2.58;1.20;;;11.00;99.90;;;;;;5076073;28;20048;-67
2021/01/21 01:35:52;;;;;;;2.92;1.10;;;11.00;99.90;;;;;;5072182;28;20463;-67
2021/01/21 01:38:18;;;;;;;3.03;1.30;;;11.10;99.90;;;;;;5070904;28;20090;-67
2021/01/21 01:40:45;;;;;;;3.33;1.42;;;11.10;99.90;;;;;;5074347;28;20098;-67
2021/01/21 01:43:11;;;;;;;3.08;1.30;;;11.20;99.90;;;;;;5078071;28;20085;-67
2021/01/21 01:45:38;;;;;;;2.22;1.15;;;11.20;99.90;;;;;;5076035;28;20052;-67
2021/01/21 01:48:05;;;;;;;4.70;1.35;;;11.20;99.90;;;;;;5072499;28;20102;-67
2021/01/21 01:50:31;;;;;;;3.17;1.10;;;11.30;99.90;;;;;;5070159;28;20044;-67
2021/01/21 01:52:58;;;;;;;2.80;1.33;;;11.30;99.90;;;;;;5078294;28;20106;-67
2021/01/21 01:55:26;;;;;;;2.35;1.20;;;11.30;99.90;;;;;;5072905;28;20060;-67
2021/01/21 01:57:54;;;;;;;2.42;0.90;;;11.30;99.90;;;;;;5071778;28;20098;-67
2021/01/21 02:00:21;;;;;;;2.00;1.05;;;11.30;99.90;;;;;;5069403;28;20081;-67
2021/01/21 02:02:49;;;;;;;2.78;1.10;;;11.40;99.90;;;;;;5071366;28;20087;-67
2021/01/21 02:05:20;;;;;;;2.35;1.17;;;11.40;99.90;;;;;;5085268;28;20139;-67
2021/01/21 02:07:47;;;;;;;3.50;1.60;;;11.40;99.90;;;;;;5074523;28;20044;-67
2021/01/21 02:10:17;;;;;;;3.05;1.02;;;11.40;99.90;;;;;;5072047;28;20053;-67
2021/01/21 02:12:52;;;;;;;3.92;1.20;;;11.50;99.90;;;;;;5074553;28;20055;-67
2021/01/21 02:15:41;;;;;;;2.90;1.20;;;11.50;99.90;;;;;;5070389;28;20155;-67
2021/01/21 02:18:07;;;;;;;;;;;11.40;99.90;;;;;;5073687;28;20048;-67
2021/01/21 02:21:14;;;;;;;4.00;1.05;;;11.20;99.90;;;;;;5070743;28;19963;-67
2021/01/21 02:24:32;;;;;;;2.13;1.00;;;11.00;99.90;;;;;;5086742;28;20548;-67
2021/01/21 02:27:04;;;;;;;2.63;1.35;;;10.90;99.90;;;;;;5068391;27;20440;-67
2021/01/21 02:29:40;;;;;;;2.60;1.05;;;10.80;99.90;;;;;;5074639;28;20513;-67
2021/01/21 02:32:06;;;;;;;3.55;1.10;;;10.90;99.90;;;;;;5064119;28;20109;-67
2021/01/21 02:34:45;;;;;;;2.85;1.00;;;11.00;99.90;;;;;;5077158;28;20127;-67
2021/01/21 02:37:17;;;;;;;3.78;1.10;;;11.10;99.90;;;;;;5065410;28;20467;-67
2021/01/21 02:39:48;;;;;;;3.08;1.00;;;11.20;99.90;;;;;;5077627;28;20097;-67
2021/01/21 02:42:16;;;;;;;2.58;1.10;;;11.40;99.90;;;;;;5071077;28;20084;-67
2021/01/21 02:44:42;;;;;;;2.53;1.00;;;11.50;99.90;;;;;;5071081;28;20060;-67
2021/01/21 02:47:11;;;;;;;3.78;1.00;;;11.50;99.90;;;;;;5072271;28;20450;-67
2021/01/21 02:49:39;;;;;;;3.10;2.65;;;11.60;99.90;;;;;;5075694;28;20052;-67
2021/01/21 02:52:11;;;;;;;2.53;1.27;;;11.70;99.90;;;;;;5075820;28;20044;-67
2021/01/21 02:54:53;;;;;;;1.95;0.90;;;11.70;99.90;;;;;;5075973;28;20098;-67
2021/01/21 02:58:02;;;;;;;3.30;3.03;;;11.80;99.90;;;;;;5070222;28;20047;-67
2021/01/21 03:00:31;;;;;;;3.53;2.55;;;11.80;99.90;;;;;;5069671;28;20109;-67
2021/01/21 03:03:04;;;;;;;3.08;1.10;;;11.80;99.90;;;;;;5070680;28;20052;-67
2021/01/21 03:05:32;;;;;;;2.25;1.00;;;11.70;99.90;;;;;;5070244;28;20056;-67
2021/01/21 03:08:00;;;;;;;2.97;1.02;;;11.50;99.90;;;;;;5076394;28;20058;-67
2021/01/21 03:10:27;;;;;;;3.55;0.93;;;11.30;99.90;;;;;;5072279;28;20453;-67
2021/01/21 03:12:58;;;;;;;2.17;1.05;;;11.30;99.90;;;;;;5070504;28;20098;-67
2021/01/21 03:15:25;;;;;;;2.47;1.17;;;11.20;99.90;;;;;;5069246;28;20048;-67
2021/01/21 03:17:52;;;;;;;3.42;1.70;;;11.10;99.90;;;;;;5069259;28;20048;-67
2021/01/21 03:20:19;;;;;;;5.22;1.58;;;10.90;99.90;;;;;;5069564;28;20048;-67
2021/01/21 03:22:46;;;;;;;5.32;1.40;;;10.80;99.90;;;;;;5070114;28;20048;-67
2021/01/21 03:25:13;;;;;;;2.13;1.20;;;10.70;99.90;;;;;;5069859;28;20118;-67
2021/01/21 03:27:40;;;;;;;2.90;1.88;;;10.60;99.90;;;;;;5069692;28;20127;-67
2021/01/21 03:30:07;;;;;;;4.07;1.00;;;10.50;99.90;;;;;;5075841;28;20089;-67
2021/01/21 03:32:35;;;;;;;3.42;1.40;;;10.40;99.90;;;;;;5078024;28;20433;-67
2021/01/21 03:35:06;;;;;;;2.50;1.30;;;10.30;99.90;;;;;;5073424;28;20147;-67
2021/01/21 03:37:34;;;;;;;2.42;0.98;;;10.20;99.90;;;;;;5070232;28;20049;-66
2021/01/21 03:40:01;;;;;;;3.10;1.25;;;10.20;99.90;;;;;;5074646;28;20048;-66
2021/01/21 03:42:27;;;;;;;2.45;1.33;;;10.20;99.90;;;;;;5070246;28;20052;-66
2021/01/21 03:44:53;;;;;;;4.50;3.95;;;10.20;99.90;;;;;;5071781;28;20219;-65
2021/01/21 03:47:20;;;;;;;5.13;1.38;;;10.30;99.90;;;;;;5072077;28;20566;-66
2021/01/21 03:49:47;;;;;;;3.75;1.20;;;10.30;99.90;;;;;;5076504;28;20131;-66
2021/01/21 03:52:14;;;;;;;3.45;1.48;;;10.30;99.90;;;;;;5071344;28;20102;-66
2021/01/21 03:54:40;;;;;;;3.53;2.80;;;10.30;99.90;;;;;;5069771;28;20094;-66
2021/01/21 03:57:06;;;;;;;8.70;8.05;;;10.30;99.90;;;;;;5069943;28;20454;-68
2021/01/21 03:59:33;;;;;;;1.80;1.10;;;9.50;99.90;;;;;;5068321;28;20048;-68
2021/01/21 04:01:59;;;;;;;1.33;0.90;;;8.70;99.90;;;;;;5070386;28;20060;-68
2021/01/21 04:04:27;;;;;;;3.47;0.77;;;8.00;99.90;;;;;;5069698;28;20294;-68
2021/01/21 04:06:53;;;;;;;2.97;0.70;;;7.50;99.90;;;;;;5072785;28;20056;-68
2021/01/21 04:09:20;;;;;;;2.42;1.30;;;7.10;99.90;;;;;;5068615;28;20357;-67
2021/01/21 04:11:46;;;;;;;3.58;1.13;;;6.80;99.90;;;;;;5069641;28;20056;-67
2021/01/21 04:14:13;;;;;;;3.10;0.93;;;6.50;99.90;;;;;;5068862;28;20472;-67
2021/01/21 04:16:39;;;;;;;2.92;1.15;;;6.40;99.90;;;;;;5069542;28;20076;-67
2021/01/21 04:19:06;;;;;;;2.75;1.85;;;6.30;99.90;;;;;;5071234;28;20094;-67
2021/01/21 04:21:32;;;;;;;6.13;1.20;;;6.20;99.90;;;;;;5074079;28;20057;-67
2021/01/21 04:24:00;;;;;;;3.22;1.40;;;6.20;99.90;;;;;;5076057;28;20052;-67
2021/01/21 04:26:27;;;;;;;2.42;0.95;;;6.30;99.90;;;;;;5066198;28;20098;-67
2021/01/21 04:28:54;;;;;;;3.17;1.27;;;6.30;99.90;;;;;;5070740;28;20052;-67
2021/01/21 04:31:22;;;;;;;6.13;1.83;;;6.40;99.90;;;;;;5074530;28;20110;-67
2021/01/21 04:33:48;;;;;;;5.40;1.08;;;6.40;99.90;;;;;;5079787;28;20044;-67
2021/01/21 04:36:15;;;;;;;2.10;0.65;;;6.40;99.90;;;;;;5071401;28;20045;-68
2021/01/21 04:38:41;;;;;;;5.22;0.80;;;6.40;99.90;;;;;;5074258;28;20079;-69
2021/01/21 04:41:08;;;;;;;2.35;0.82;;;6.40;99.90;;;;;;5080800;28;20100;-70
2021/01/21 04:43:38;;;;;;;5.25;0.70;;;6.40;99.90;;;;;;5074826;28;20044;-70
2021/01/21 04:46:08;;;;;;;4.60;0.95;;;6.40;99.90;;;;;;5080274;28;20048;-69
2021/01/21 04:48:35;;;;;;;4.03;1.33;;;6.30;99.90;;;;;;5078118;28;20044;-69
2021/01/21 04:51:03;;;;;;;3.65;1.00;;;6.30;99.90;;;;;;5097391;27;20052;-69
2021/01/21 04:53:30;;;;;;;3.58;1.20;;;6.30;99.90;;;;;;5068364;28;20459;-69
2021/01/21 04:56:01;;;;;;;3.83;1.10;;;6.40;99.90;;;;;;5068602;28;20041;-68
2021/01/21 04:58:31;;;;;;;3.65;0.95;;;6.40;99.90;;;;;;5066984;28;20097;-68
2021/01/21 05:01:01;;;;;;;3.42;1.20;;;6.40;99.90;;;;;;5067761;28;20127;-67
2021/01/21 05:03:29;;;;;;;2.17;0.98;;;6.50;99.90;;;;;;5066504;28;20147;-68
2021/01/21 05:05:56;;;;;;;3.72;0.98;;;6.50;99.90;;;;;;5067208;28;20538;-67
2021/01/21 05:08:23;;;;;;;4.28;1.00;;;6.60;99.90;;;;;;5065928;28;20616;-67
2021/01/21 05:10:50;;;;;;;3.13;1.38;;;6.70;99.90;;;;;;5069744;28;20048;-67
2021/01/21 05:13:17;;;;;;;5.57;1.30;;;6.70;99.90;;;;;;5070635;28;20044;-67
2021/01/21 05:15:44;;;;;;;8.38;1.60;;;6.80;99.90;;;;;;5067976;28;20119;-67
2021/01/21 05:18:12;;;;;;;9.50;1.50;;;6.80;99.90;;;;;;5068252;28;20098;-67
2021/01/21 05:20:40;;;;;;;9.98;1.33;;;6.90;99.90;;;;;;5069919;28;20488;-67
2021/01/21 05:23:07;;;;;;;8.43;1.55;;;6.90;99.90;;;;;;5101137;27;20458;-67
2021/01/21 05:25:35;;;;;;;10.23;1.30;;;6.90;99.90;;;;;;5071644;28;20071;-66
2021/01/21 05:28:06;;;;;;;5.20;1.30;;;7.00;99.90;;;;;;5069127;28;20147;-66
2021/01/21 05:30:34;;;;;;;6.05;1.20;;;7.00;99.90;;;;;;5072818;28;20057;-67
2021/01/21 05:33:02;;;;;;;4.30;1.60;;;7.00;99.90;;;;;;5070822;28;20106;-67
2021/01/21 05:35:29;;;;;;;2.40;1.50;;;7.00;99.90;;;;;;5070012;28;20056;-67
2021/01/21 05:37:57;;;;;;;7.00;1.30;;;6.90;99.90;;;;;;5075748;28;20483;-66
2021/01/21 05:40:28;;;;;;;6.10;1.25;;;6.90;99.90;;;;;;5071197;28;20521;-67
2021/01/21 05:42:57;;;;;;;3.60;0.88;;;6.90;99.90;;;;;;5067710;28;20052;-67
2021/01/21 05:45:25;;;;;;;3.38;1.60;;;6.90;99.90;;;;;;5071079;28;20052;-67
2021/01/21 05:48:00;;;;;;;5.55;1.02;;;6.80;99.90;;;;;;5071263;28;20078;-67
2021/01/21 05:50:29;;;;;;;6.38;1.75;;;6.90;99.90;;;;;;5063459;28;20080;-67
2021/01/21 05:52:59;;;;;;;4.50;1.50;;;6.80;99.90;;;;;;5075856;28;20055;-67
2021/01/21 05:55:27;;;;;;;6.38;1.50;;;6.80;99.90;;;;;;5067381;28;20052;-67
2021/01/21 05:57:58;;;;;;;3.45;1.33;;;6.80;99.90;;;;;;5074454;28;20052;-66
2021/01/21 06:00:25;;;;;;;8.10;1.85;;;6.80;99.90;;;;;;5074942;28;20110;-67
2021/01/21 06:02:52;;;;;;;5.65;1.10;;;6.80;99.90;;;;;;5070969;28;20140;-67
2021/01/21 06:05:21;;;;;;;5.32;1.00;;;6.70;99.90;;;;;;5082965;28;20048;-66
2021/01/21 06:07:48;;;;;;;3.97;0.88;;;6.70;99.90;;;;;;5069749;28;20105;-66
2021/01/21 06:10:16;;;;;;;2.28;0.88;;;6.70;99.90;;;;;;5070001;28;20044;-66
2021/01/21 06:12:48;;;;;;;5.25;0.90;;;6.70;99.90;;;;;;5069372;28;20049;-67
2021/01/21 06:15:15;;;;;;;4.93;1.05;;;6.70;99.90;;;;;;5072944;28;20052;-66
2021/01/21 06:17:43;;;;;;;3.28;1.20;;;6.70;99.90;;;;;;5070062;28;20044;-66
2021/01/21 06:20:11;;;;;;;4.25;0.98;;;6.70;99.90;;;;;;5072972;28;20101;-66
2021/01/21 06:22:43;;;;;;;6.30;1.65;;;6.70;99.90;;;;;;5068823;28;20189;-66
2021/01/21 06:25:12;;;;;;;3.55;1.17;;;6.70;99.90;;;;;;5065205;28;20045;-66
2021/01/21 06:27:39;;;;;;;;;;;6.70;99.90;;;;;;5070332;28;20063;-67
2021/01/21 06:30:11;;;;;;;5.95;1.42;;;6.60;99.90;;;;;;5069844;28;19977;-66
2021/01/21 06:32:46;;;;;;;1.85;0.73;;;6.60;99.90;;;;;;5101666;27;20122;-66
2021/01/21 06:35:16;;;;;;;5.22;0.90;;;6.60;99.90;;;;;;5065512;28;20110;-66
2021/01/21 06:37:49;;;;;;;7.75;1.25;;;6.50;99.90;;;;;;5070144;28;20067;-66
2021/01/21 06:40:17;;;;;;;4.63;1.20;;;6.50;99.90;;;;;;5073322;28;20072;-66
2021/01/21 06:43:02;;;;;;;4.13;0.90;;;6.40;99.90;;;;;;5066684;28;20096;-66
2021/01/21 06:45:31;;;;;;;3.50;1.50;;;6.30;99.90;;;;;;5065734;28;20048;-66
2021/01/21 06:47:58;;;;;;;4.90;1.30;;;6.30;99.90;;;;;;5111587;27;20070;-66
2021/01/21 06:50:28;;;;;;;3.72;0.80;;;6.20;99.90;;;;;;5058371;28;20053;-66
2021/01/21 06:52:58;;;;;;;3.13;1.23;;;6.20;99.90;;;;;;5070572;28;20048;-68
2021/01/21 06:55:26;;;;;;;5.25;1.60;;;6.20;99.90;;;;;;5061923;28;20407;-68
2021/01/21 06:57:53;;;;;;;4.15;1.00;;;6.20;99.90;;;;;;5066438;28;20523;-67
2021/01/21 07:00:38;;;;;;;5.65;0.90;;;6.20;99.90;;;;;;5068457;28;20044;-68
2021/01/21 07:03:05;;;;;;;5.03;1.23;;;6.10;99.90;;;;;;5067862;28;20052;-68
2021/01/21 07:05:32;;;;;;;5.75;1.65;;;6.10;99.90;;;;;;5069760;28;20051;-68
2021/01/21 07:08:03;;;;;;;4.25;1.00;;;6.10;99.90;;;;;;5101229;27;20063;-67
2021/01/21 07:10:34;;;;;;;3.42;1.20;;;6.00;99.90;;;;;;5072235;28;20052;-66
2021/01/21 07:13:18;;;;;;;6.93;0.85;;;6.00;99.90;;;;;;5081438;28;20087;-66
2021/01/21 07:15:45;;;;;;;7.47;1.10;;;6.00;99.90;;;;;;5072472;28;20047;-67
2021/01/21 07:18:47;;;;;;;3.50;1.00;;;5.90;99.90;;;;;;5067466;28;20490;-67
2021/01/21 07:21:17;;;;;;;8.40;1.45;;;5.90;99.90;;;;;;5071577;28;20056;-67
2021/01/21 07:23:55;;;;;;;5.25;1.50;;;5.90;99.90;;;;;;5066850;28;20113;-67
2021/01/21 07:26:25;;;;;;;4.57;1.35;;;5.80;99.90;;;;;;5072640;28;20525;-67
2021/01/21 07:29:14;;;;;;;3.00;0.90;;;5.80;99.90;;;;;;5072907;28;20438;-67
2021/01/21 07:31:53;;;;;;;9.23;1.40;;;5.90;99.90;;;;;;5071074;28;20151;-67
2021/01/21 07:34:38;;;;;;;4.30;0.90;;;5.90;99.90;;;;;;5069992;28;20051;-68
2021/01/21 07:37:20;;;;;;;2.05;0.90;;;5.80;99.90;;;;;;5071758;28;20135;-67
2021/01/21 07:39:54;;;;;;;4.68;1.05;;;5.80;99.90;;;;;;5075935;28;20044;-67
2021/01/21 07:42:37;;;;;;;5.07;1.10;;;5.70;99.90;;;;;;5069932;28;20052;-67
2021/01/21 07:45:07;;;;;;;4.57;1.38;;;5.70;99.90;;;;;;5069467;28;20178;-67
2021/01/21 07:47:38;;;;;;;5.25;1.30;;;5.70;99.90;;;;;;5068503;28;20407;-67
2021/01/21 07:50:14;;;;;;;6.97;1.83;;;5.70;99.90;;;;;;5103522;28;20467;-67
2021/01/21 07:52:41;;;;;;;2.53;1.08;;;5.80;99.90;;;;;;5069557;28;20082;-67
2021/01/21 07:55:09;;;;;;;3.40;0.90;;;5.70;99.90;;;;;;5069612;28;20048;-67
2021/01/21 07:57:37;;;;;;;2.92;1.05;;;5.70;99.90;;;;;;5068937;28;20495;-68
2021/01/21 08:00:05;;;;;;;6.97;1.30;;;5.70;99.90;;;;;;5112672;28;20060;-67
2021/01/21 08:02:45;;;;;;;4.38;1.10;;;5.70;99.90;;;;;;5072586;28;20102;-67
2021/01/21 08:05:17;;;;;;;3.50;0.98;;;5.70;99.90;;;;;;5073736;28;20048;-67
2021/01/21 08:07:51;;;;;;;4.38;1.00;;;5.60;99.90;;;;;;5072720;28;20048;-67
2021/01/21 08:10:26;;;;;;;7.28;1.90;;;5.70;99.90;;;;;;5080387;28;20072;-67
2021/01/21 08:13:01;;;;;;;5.97;1.40;;;5.70;99.90;;;;;;5080080;28;20051;-68
2021/01/21 08:15:29;;;;;;;7.18;1.60;;;5.70;99.90;;;;;;5072935;28;20048;-67
2021/01/21 08:17:57;;;;;;;5.07;1.08;;;5.60;99.90;;;;;;5073464;28;20182;-67
2021/01/21 08:20:28;;;;;;;7.05;1.40;;;5.70;99.90;;;;;;5073322;28;20454;-67
2021/01/21 08:22:58;;;;;;;6.32;1.73;;;5.60;99.90;;;;;;5073439;28;20048;-67
2021/01/21 08:25:30;;;;;;;6.93;1.58;;;5.60;99.90;;;;;;5071119;28;20055;-67
2021/01/21 08:27:57;;;;;;;5.15;1.65;;;5.60;99.90;;;;;;5071708;28;20388;-67
2021/01/21 08:30:28;;;;;;;3.38;1.27;;;5.60;99.90;;;;;;5074626;28;20049;-67
2021/01/21 08:33:01;;;;;;;5.55;1.40;;;5.70;99.90;;;;;;5071953;28;20045;-67
2021/01/21 08:35:33;;;;;;;6.82;1.80;;;5.70;99.90;;;;;;5072716;28;20098;-67
2021/01/21 08:38:23;;;;;;;8.02;1.48;;;5.80;99.90;;;;;;5071610;28;20055;-67
2021/01/21 08:40:52;;;;;;;7.25;1.73;;;5.80;99.90;;;;;;5083322;28;20091;-67
2021/01/21 08:43:19;;;;;;;;;;;5.80;99.90;;;;;;5073347;28;20115;-67
2021/01/21 08:45:46;;;;;;;6.97;1.40;;;5.90;99.90;;;;;;5072348;28;19968;-67
2021/01/21 08:48:26;;;;;;;5.72;1.83;;;5.90;99.90;;;;;;5070844;28;20044;-67
2021/01/21 08:50:53;;;;;;;4.72;1.50;;;5.90;99.90;;;;;;5072086;28;20129;-67
2021/01/21 08:53:25;;;;;;;7.72;1.38;;;5.90;99.90;;;;;;5079745;28;20052;-67
2021/01/21 08:55:53;;;;;;;5.20;1.27;;;6.00;99.90;;;;;;5069876;28;20101;-67
2021/01/21 08:58:28;;;;;;;6.33;1.57;;;6.10;99.90;;;;;;5071317;28;20102;-67
2021/01/21 09:01:11;;;;;;;5.15;1.60;;;6.20;99.90;;;;;;5070376;28;20051;-67
2021/01/21 09:03:49;;;;;;;9.02;1.80;;;6.20;99.90;;;;;;5071789;28;20048;-67
2021/01/21 09:06:18;;;;;;;4.43;1.73;;;6.30;99.90;;;;;;5077460;28;20502;-67
2021/01/21 09:08:50;;;;;;;6.97;1.92;;;6.30;99.90;;;;;;5070739;28;20463;-67
2021/01/21 09:11:38;;;;;;;4.40;1.55;;;6.40;99.90;;;;;;5072243;28;20049;-67
2021/01/21 09:14:07;;;;;;;8.25;1.63;;;6.50;99.90;;;;;;5071202;28;20044;-67
2021/01/21 09:16:46;;;;;;;5.82;1.55;;;6.60;99.90;;;;;;5072638;28;20052;-67
2021/01/21 09:19:37;;;;;;;7.43;2.33;;;6.60;99.90;;;;;;5070899;28;20131;-67
2021/01/21 09:22:04;;;;;;;6.40;1.52;;;6.80;99.90;;;;;;5068235;28;20056;-67
2021/01/21 09:24:31;;;;;;;8.07;1.33;;;6.80;99.90;;;;;;5072169;28;20052;-67
2021/01/21 09:27:28;;;;;;;3.35;1.20;;;6.90;99.90;;;;;;5072176;28;20088;-67
2021/01/21 09:30:11;;;;;;;9.45;1.60;;;7.00;99.90;;;;;;5041078;28;20121;-67
2021/01/21 09:32:41;;;;;;;9.38;1.75;;;7.10;99.90;;;;;;5069701;28;20052;-67
2021/01/21 09:35:15;;;;;;;5.95;1.48;;;7.20;99.90;;;;;;5070304;28;20404;-67
2021/01/21 09:37:57;;;;;;;8.10;1.48;;;7.30;99.90;;;;;;5066728;28;20083;-67
2021/01/21 09:40:26;;;;;;;4.28;1.50;;;7.40;99.90;;;;;;5068393;28;20407;-67
2021/01/21 09:42:55;;;;;;;3.47;1.25;;;7.50;99.90;;;;;;5104385;27;20460;-67
2021/01/21 09:45:22;;;;;;;7.43;1.98;;;7.50;99.90;;;;;;5070526;28;20083;-67
2021/01/21 09:47:51;;;;;;;7.53;1.50;;;7.50;99.90;;;;;;5070660;28;20138;-67
2021/01/21 09:50:19;;;;;;;5.88;1.50;;;7.50;99.90;;;;;;5069557;28;20503;-67
2021/01/21 09:52:46;;;;;;;4.63;1.45;;;7.50;99.90;;;;;;5068281;28;20090;-67
2021/01/21 09:55:13;;;;;;;5.68;1.20;;;7.60;99.90;;;;;;5069118;28;20044;-67
2021/01/21 09:57:40;;;;;;;6.40;1.50;;;7.70;99.90;;;;;;5071466;28;20106;-67
2021/01/21 10:00:11;;;;;;;5.43;1.50;;;7.70;99.90;;;;;;5077108;28;20114;-66
2021/01/21 10:02:39;;;;;;;7.82;1.90;;;7.70;99.90;;;;;;5076480;28;20456;-67
2021/01/21 10:05:08;;;;;;;7.65;1.50;;;7.70;99.90;;;;;;5071747;28;20048;-67
2021/01/21 10:07:35;;;;;;;6.57;1.30;;;7.80;99.90;;;;;;5071771;28;20127;-67
2021/01/21 10:10:04;;;;;;;8.23;1.55;;;7.80;99.90;;;;;;5073340;28;20109;-67
2021/01/21 10:12:30;;;;;;;5.25;1.30;;;7.70;99.90;;;;;;5071814;28;20084;-67
2021/01/21 10:14:58;;;;;;;9.68;1.58;;;7.80;99.90;;;;;;5072226;28;20048;-67
2021/01/21 10:17:26;;;;;;;10.02;2.25;;;7.80;99.90;;;;;;5071957;28;20082;-67
2021/01/21 10:19:53;;;;;;;5.88;1.80;;;7.70;99.90;;;;;;5068075;28;20098;-67
2021/01/21 10:22:19;;;;;;;7.20;1.77;;;7.70;99.90;;;;;;5071506;28;20384;-66
2021/01/21 10:24:46;;;;;;;6.18;1.55;;;7.80;99.90;;;;;;5071306;28;20098;-67
2021/01/21 10:27:13;;;;;;;7.55;2.30;;;7.80;99.90;;;;;;5077129;28;20048;-66
2021/01/21 10:29:40;;;;;;;7.32;1.35;;;7.70;99.90;;;;;;5070828;28;20125;-67
2021/01/21 10:32:06;;;;;;;6.85;1.65;;;7.80;99.90;;;;;;5071564;28;20408;-67
2021/01/21 10:34:33;;;;;;;8.10;1.73;;;8.00;99.90;;;;;;5071347;28;20531;-66
2021/01/21 10:37:00;;;;;;;5.82;1.33;;;8.10;99.90;;;;;;5074728;28;20068;-67
2021/01/21 10:39:27;;;;;;;7.32;1.10;;;8.30;99.90;;;;;;5074183;28;20051;-66
2021/01/21 10:41:53;;;;;;;4.15;1.58;;;8.30;99.90;;;;;;5065263;28;20048;-66
2021/01/21 10:44:20;;;;;;;5.63;1.75;;;8.30;99.90;;;;;;5066013;28;20357;-66
2021/01/21 10:46:46;;;;;;;6.32;1.63;;;8.30;99.90;;;;;;5065519;28;20055;-66
2021/01/21 10:49:14;;;;;;;6.40;1.20;;;8.20;99.90;;;;;;5063510;28;20416;-66
2021/01/21 10:51:41;;;;;;;3.63;1.23;;;8.10;99.90;;;;;;5063314;28;20059;-66
2021/01/21 10:54:08;;;;;;;9.13;1.35;;;8.00;99.90;;;;;;5057665;28;20516;-66
2021/01/21 10:56:34;;;;;;;9.05;2.10;;;8.00;99.90;;;;;;5063520;28;20398;-67
2021/01/21 10:59:05;;;;;;;4.15;1.60;;;8.00;99.90;;;;;;5060266;28;21612;-66
2021/01/21 11:01:33;;;;;;;8.18;1.42;;;8.20;99.90;;;;;;5063327;28;20538;-66
2021/01/21 11:04:00;;;;;;;6.77;1.63;;;8.30;99.90;;;;;;5064101;28;20131;-66
2021/01/21 11:06:27;;;;;;;7.85;1.20;;;8.30;99.90;;;;;;5062234;28;20298;-66
2021/01/21 11:08:53;;;;;;;5.63;1.23;;;8.30;99.90;;;;;;5063963;28;20426;-67
2021/01/21 11:11:20;;;;;;;4.72;1.48;;;8.20;99.90;;;;;;5065923;28;20427;-67
2021/01/21 11:13:48;;;;;;;2.97;1.20;;;8.30;99.90;;;;;;5065512;28;20130;-66
2021/01/21 11:16:14;;;;;;;5.57;1.75;;;8.50;99.90;;;;;;5098932;27;20480;-66
2021/01/21 11:18:41;;;;;;;7.05;1.35;;;8.50;99.90;;;;;;5063150;28;20571;-67
2021/01/21 11:21:07;;;;;;;3.35;1.20;;;8.60;99.90;;;;;;5065983;28;20044;-66
2021/01/21 11:23:34;;;;;;;6.40;1.30;;;8.70;99.90;;;;;;5065905;28;20450;-66
2021/01/21 11:26:02;;;;;;;8.75;2.28;;;8.70;99.90;;;;;;5065029;28;20111;-67
2021/01/21 11:28:29;;;;;;;7.43;1.50;;;8.60;99.90;;;;;;5064400;28;20059;-66
2021/01/21 11:30:55;;;;;;;6.07;1.38;;;8.50;99.90;;;;;;5063671;28;20110;-67
2021/01/21 11:33:24;;;;;;;3.78;1.67;;;8.30;99.90;;;;;;5064657;28;20056;-67
2021/01/21 11:36:05;;;;;;;4.68;1.25;;;8.20;99.90;;;;;;5062683;28;20080;-66
2021/01/21 11:38:32;;;;;;;4.90;1.17;;;8.20;99.90;;;;;;5065719;28;20578;-66
2021/01/21 11:40:58;;;;;;;4.68;1.40;;;8.20;99.90;;;;;;5064962;28;20049;-66
2021/01/21 11:43:25;;;;;;;5.55;1.23;;;8.40;99.90;;;;;;5065001;28;20045;-67
2021/01/21 11:45:51;;;;;;;6.30;1.60;;;8.80;99.90;;;;;;5065707;28;20040;-67
2021/01/21 11:48:18;;;;;;;5.85;1.30;;;9.20;99.90;;;;;;5067719;28;20055;-66
2021/01/21 11:50:45;;;;;;;5.40;1.25;;;9.40;99.90;;;;;;5066518;28;20494;-67
2021/01/21 11:53:12;;;;;;;4.97;1.50;;;9.70;99.90;;;;;;5065444;28;20116;-66
2021/01/21 11:55:39;;;;;;;5.78;1.50;;;9.90;99.90;;;;;;5064792;28;20056;-66
2021/01/21 11:58:05;;;;;;;5.13;1.83;;;9.90;99.90;;;;;;5064135;28;20060;-67
2021/01/21 12:00:32;;;;;;;4.10;1.48;;;9.70;99.90;;;;;;5065547;28;20475;-66
2021/01/21 12:02:58;;;;;;;6.43;1.70;;;9.40;99.90;;;;;;5066140;28;20120;-66
2021/01/21 12:05:25;;;;;;;6.57;1.98;;;9.30;99.90;;;;;;5063819;28;20134;-66
2021/01/21 12:07:51;;;;;;;4.13;1.85;;;9.50;99.90;;;;;;5067038;28;20067;-66
2021/01/21 12:10:19;;;;;;;4.80;1.45;;;9.60;99.90;;;;;;5067000;28;20128;-66
2021/01/21 12:12:46;;;;;;;3.35;1.65;;;9.50;99.90;;;;;;5067096;28;20041;-67
2021/01/21 12:15:13;;;;;;;5.10;1.70;;;9.40;99.90;;;;;;5068189;28;20148;-66
2021/01/21 12:17:41;;;;;;;6.10;1.60;;;9.30;99.90;;;;;;5069853;28;20040;-66
2021/01/21 12:20:08;;;;;;;3.40;1.67;;;9.20;99.90;;;;;;5068188;28;20285;-66
2021/01/21 12:22:35;;;;;;;6.32;1.52;;;9.00;99.90;;;;;;5099372;28;20560;-66
2021/01/21 12:25:02;;;;;;;5.72;1.60;;;8.90;99.90;;;;;;5071116;28;20079;-66
2021/01/21 12:27:29;;;;;;;5.80;1.77;;;8.70;99.90;;;;;;5069649;28;20059;-66
2021/01/21 12:29:55;;;;;;;4.78;2.00;;;8.70;99.90;;;;;;5067389;28;20464;-66
2021/01/21 12:32:22;;;;;;;4.90;1.83;;;8.60;99.90;;;;;;5070896;28;20045;-66
2021/01/21 12:34:49;;;;;;;5.93;2.13;;;8.50;99.90;;;;;;5070602;28;20044;-66
2021/01/21 12:37:15;;;;;;;4.35;1.25;;;8.50;99.90;;;;;;5071313;28;20526;-66
2021/01/21 12:39:42;;;;;;;3.45;1.60;;;8.50;99.90;;;;;;5066029;28;20526;-66
2021/01/21 12:42:08;;;;;;;5.13;1.17;;;8.60;99.90;;;;;;5069401;28;20084;-66
2021/01/21 12:44:35;;;;;;;6.22;1.42;;;8.60;99.90;;;;;;5071380;28;20146;-66
2021/01/21 12:47:01;;;;;;;3.15;1.58;;;8.60;99.90;;;;;;5072275;28;20060;-66
2021/01/21 12:49:29;;;;;;;4.40;1.40;;;8.60;99.90;;;;;;5070781;28;20051;-66
2021/01/21 12:51:55;;;;;;;6.93;1.55;;;8.60;99.90;;;;;;5071332;28;20063;-66
2021/01/21 12:54:23;;;;;;;3.17;1.35;;;8.60;99.90;;;;;;5073486;28;20041;-66
2021/01/21 12:56:49;;;;;;;4.75;1.40;;;8.50;99.90;;;;;;5070997;28;20103;-66
2021/01/21 12:59:16;;;;;;;3.75;1.20;;;8.40;99.90;;;;;;5072913;28;20133;-66
2021/01/21 13:01:42;;;;;;;5.82;1.50;;;8.40;99.90;;;;;;5069856;28;20368;-66
2021/01/21 13:04:09;;;;;;;3.05;1.15;;;8.40;99.90;;;;;;5072091;28;20070;-67
2021/01/21 13:06:36;;;;;;;5.13;1.30;;;8.40;99.90;;;;;;5072083;28;20052;-67